METAR Data
IDs: Format: Raw Decoded Include TAF

Data at: 1034 UTC 18 Jan 2022

K33V 181015Z AUTO 11005KT 10SM CLR M05/M16 A2996 RMK AO1
K33V 180955Z AUTO 14006KT 10SM CLR M05/M16 A2996 RMK AO1
K33V 180935Z AUTO 14005KT 10SM CLR M05/M16 A2996 RMK AO1
K33V 180915Z AUTO 15007KT 10SM CLR M07/M16 A2996 RMK AO1
K33V 180855Z AUTO 16008KT 10SM CLR M06/M15 A2997 RMK AO1
K33V 180835Z AUTO 16004KT 10SM CLR M03/M16 A2997 RMK AO1
K33V 180815Z AUTO 17010KT 10SM CLR M03/M16 A2997 RMK AO1
K33V 180755Z AUTO 19008KT 10SM CLR M03/M16 A2997 RMK AO1
K33V 180735Z AUTO 19010KT 10SM CLR M05/M15 A2998 RMK AO1
K33V 180715Z AUTO 19011KT 10SM CLR M05/M15 A2998 RMK AO1
K33V 180655Z AUTO 19013KT 10SM CLR M04/M15 A2999 RMK AO1
K33V 180635Z AUTO 13007KT 10SM CLR M05/M14 A3000 RMK AO1
K33V 180615Z AUTO 14007KT 10SM CLR M05/M14 A3001 RMK AO1
K33V 180555Z AUTO 18007KT 10SM CLR M03/M15 A3001 RMK AO1
K33V 180535Z AUTO 00000KT 10SM CLR M05/M16 A3001 RMK AO1
K33V 180515Z AUTO 19008KT 10SM CLR M01/M16 A3001 RMK AO1
K33V 180455Z AUTO 18003KT 10SM CLR M01/M17 A3002 RMK AO1
K33V 180435Z AUTO 15004KT 10SM CLR M06/M16 A3002 RMK AO1
K33V 180415Z AUTO 12005KT 10SM CLR M07/M16 A3003 RMK AO1
K33V 180355Z AUTO 13005KT 10SM CLR M06/M17 A3003 RMK AO1
K33V 180335Z AUTO 13004KT 10SM CLR M06/M18 A3003 RMK AO1
K33V 180315Z AUTO 20005KT 10SM CLR M01/M18 A3004 RMK AO1
K33V 180255Z AUTO 20006KT 7SM CLR M01/M16 A3004 RMK AO1
K33V 180235Z AUTO 20005KT 10SM CLR M05/M17 A3004 RMK AO1
K33V 180215Z AUTO 20006KT 10SM CLR M03/M17 A3004 RMK AO1
K33V 180155Z AUTO 21005KT 10SM CLR M06/M16 A3004 RMK AO1
K33V 180135Z AUTO 15006KT 10SM CLR M08/M15 A3003 RMK AO1
K33V 180115Z AUTO 19005KT 7SM CLR M04/M15 A3003 RMK AO1
K33V 180055Z AUTO 17004KT 10SM CLR M06/M15 A3004 RMK AO1
K33V 180035Z AUTO 13007KT 10SM CLR M06/M15 A3003 RMK AO1
K33V 180015Z AUTO 14006KT 10SM CLR M05/M14 A3003 RMK AO1
K33V 172355Z AUTO 17003KT 10SM CLR M06/M14 A3003 RMK AO1
K33V 172335Z AUTO 00000KT 10SM CLR M02/M13 A3004 RMK AO1
K33V 172315Z AUTO 19004KT 10SM CLR M07/M13 A3004 RMK AO1
K33V 172255Z AUTO 20003KT 10SM CLR 00/M13 A3004 RMK AO1
K33V 172235Z AUTO 18004KT 10SM CLR 00/M13 A3004 RMK AO1
K33V 172215Z AUTO 20003KT 10SM CLR 00/M13 A3006 RMK AO1
K33V 172155Z AUTO 20006KT 10SM CLR M01/M13 A3006 RMK AO1
K33V 172135Z AUTO 22005KT 10SM CLR M04/M14 A3007 RMK AO1
K33V 172115Z AUTO 00000KT 10SM CLR M07/M12 A3006 RMK AO1
K33V 172055Z AUTO 00000KT 10SM CLR M05/M12 A3006 RMK AO1
K33V 172035Z AUTO 00000KT 10SM CLR M05/M12 A3006 RMK AO1
K33V 172015Z AUTO 00000KT 10SM CLR M07/M13 A3007 RMK AO1
K33V 171955Z AUTO 00000KT 10SM CLR M02/M12 A3009 RMK AO1
K33V 171935Z AUTO 11005KT 10SM CLR M02/M12 A3010 RMK AO1
K33V 171915Z AUTO 00000KT 10SM CLR M05/M12 A3010 RMK AO1
K33V 171855Z AUTO 00000KT 10SM CLR M06/M14 A3012 RMK AO1
K33V 171835Z AUTO 16004KT 10SM CLR M05/M14 A3013 RMK AO1
K33V 171815Z AUTO 16004KT 10SM CLR M06/M15 A3014 RMK AO1
K33V 171755Z AUTO 16005KT 10SM CLR M06/M16 A3014 RMK AO1
K33V 171735Z AUTO 00000KT 10SM CLR M08/M16 A3015 RMK AO1
K33V 171715Z AUTO 17003KT 10SM CLR M08/M17 A3014 RMK AO1
K33V 171655Z AUTO 00000KT 10SM CLR M08/M18 A3015 RMK AO1
K33V 171635Z AUTO 00000KT 10SM CLR M10/M18 A3015 RMK AO1
K33V 171615Z AUTO 19003KT 10SM CLR M11/M19 A3014 RMK AO1
K33V 171555Z AUTO 18004KT 10SM CLR M11/M19 A3014 RMK AO1
K33V 171535Z AUTO 00000KT 10SM CLR M10/M18 A3013 RMK AO1
K33V 171515Z AUTO 00000KT 10SM CLR M11/M18 A3013 RMK AO1
K33V 171455Z AUTO 08003KT 10SM CLR M12/M20 A3013 RMK AO1
K33V 171435Z AUTO 14003KT 10SM CLR M12/M18 A3013 RMK AO1
K33V 171415Z AUTO 13005KT 10SM CLR M12/M18 A3013 RMK AO1
K33V 171355Z AUTO 14008KT 10SM CLR M12/M18 A3012 RMK AO1
K33V 171335Z AUTO 13007KT 10SM CLR M13/M19 A3013 RMK AO1
K33V 171315Z AUTO 13009KT 10SM CLR M12/M18 A3013 RMK AO1
K33V 171255Z AUTO 15006KT 10SM CLR M11/M18 A3013 RMK AO1
K33V 171235Z AUTO 14005KT 10SM CLR M11/M18 A3013 RMK AO1
K33V 171215Z AUTO 15006KT 10SM CLR M11/M18 A3013 RMK AO1
K33V 171155Z AUTO 15007KT 10SM CLR M10/M18 A3013 RMK AO1
K33V 171135Z AUTO 12008KT 10SM CLR M11/M19 A3013 RMK AO1
K33V 171115Z AUTO 15008KT 10SM CLR M10/M18 A3013 RMK AO1
K33V 171055Z AUTO 15009KT 10SM CLR M10/M18 A3013 RMK AO1
K33V 171035Z AUTO 15009KT 10SM CLR M12/M18 A3013 RMK AO1
K33V 171015Z AUTO 15007KT 10SM CLR M11/M18 A3015 RMK AO1
K33V 170955Z AUTO 14007KT 10SM CLR M12/M18 A3015 RMK AO1
K33V 170935Z AUTO 14006KT 10SM CLR M12/M18 A3016 RMK AO1
K33V 170915Z AUTO 13006KT 10SM CLR M11/M18 A3016 RMK AO1
K33V 170855Z AUTO 13005KT 10SM CLR M12/M17 A3016 RMK AO1
K33V 170835Z AUTO 14007KT 10SM CLR M12/M17 A3016 RMK AO1
K33V 170815Z AUTO 14007KT 10SM CLR M12/M18 A3016 RMK AO1
K33V 170755Z AUTO 17007KT 10SM CLR M08/M17 A3017 RMK AO1
K33V 170735Z AUTO 17006KT 10SM CLR M10/M17 A3017 RMK AO1
K33V 170715Z AUTO 15006KT 10SM CLR M11/M17 A3017 RMK AO1
K33V 170655Z AUTO 15008KT 10SM CLR M10/M17 A3017 RMK AO1
K33V 170635Z AUTO 15008KT 10SM CLR M11/M17 A3017 RMK AO1
K33V 170615Z AUTO 15008KT 10SM CLR M12/M17 A3017 RMK AO1
K33V 170555Z AUTO 13007KT 10SM CLR M12/M17 A3018 RMK AO1
K33V 170535Z AUTO 13008KT 10SM CLR M11/M16 A3018 RMK AO1
K33V 170515Z AUTO 13008KT 10SM CLR M12/M17 A3018 RMK AO1
K33V 170455Z AUTO 12007KT 10SM CLR M10/M16 A3019 RMK AO1
K33V 170435Z AUTO 13007KT 10SM CLR M12/M17 A3019 RMK AO1
K33V 170415Z AUTO 13009KT 10SM CLR M11/M16 A3019 RMK AO1
K33V 170355Z AUTO 12007KT 10SM CLR M11/M17 A3019 RMK AO1
K33V 170335Z AUTO 13009KT 10SM CLR M11/M17 A3019 RMK AO1
K33V 170315Z AUTO 14009KT 10SM CLR M11/M17 A3020 RMK AO1
K33V 170255Z AUTO 14008KT 10SM CLR M11/M17 A3020 RMK AO1
K33V 170235Z AUTO 13008KT 10SM CLR M08/M17 A3020 RMK AO1
K33V 170215Z AUTO 14006KT 10SM CLR M08/M17 A3021 RMK AO1
K33V 170155Z AUTO 12004KT 10SM CLR M07/M17 A3021 RMK AO1
K33V 170135Z AUTO 13004KT 10SM CLR M05/M17 A3020 RMK AO1
K33V 170115Z AUTO 17005KT 10SM CLR M04/M17 A3019 RMK AO1
K33V 170055Z AUTO 14004KT 10SM CLR M06/M17 A3019 RMK AO1
K33V 170035Z AUTO 14005KT 10SM CLR M06/M16 A3018 RMK AO1
K33V 170015Z AUTO 18007KT 10SM CLR M02/M16 A3018 RMK AO1
K33V 162355Z AUTO 20009KT 10SM CLR M02/M15 A3018 RMK AO1
K33V 162335Z AUTO 20009KT 10SM CLR M02/M15 A3016 RMK AO1
K33V 162315Z AUTO 20011KT 10SM CLR M01/M14 A3018 RMK AO1
K33V 162255Z AUTO 20009KT 10SM CLR M01/M14 A3019 RMK AO1
K33V 162235Z AUTO 22007KT 10SM CLR M01/M12 A3018 RMK AO1